sensor_id;sensor_type;location;lat;lon;timestamp;temperature;humidity
29663;DHT22;16578;53.266;7.920;2023-03-20T00:00:34;13.40;72.50
29663;DHT22;16578;53.266;7.920;2023-03-20T00:03:00;13.40;72.50
29663;DHT22;16578;53.266;7.920;2023-03-20T00:05:28;13.40;72.50
29663;DHT22;16578;53.266;7.920;2023-03-20T00:07:55;13.30;73.20
29663;DHT22;16578;53.266;7.920;2023-03-20T00:10:26;13.30;72.30
29663;DHT22;16578;53.266;7.920;2023-03-20T00:12:54;13.40;72.30
29663;DHT22;16578;53.266;7.920;2023-03-20T00:15:36;13.30;72.30
29663;DHT22;16578;53.266;7.920;2023-03-20T00:18:03;13.30;72.40
29663;DHT22;16578;53.266;7.920;2023-03-20T00:20:29;13.30;72.40
29663;DHT22;16578;53.266;7.920;2023-03-20T00:22:55;13.30;72.20
29663;DHT22;16578;53.266;7.920;2023-03-20T00:25:23;13.20;72.20
29663;DHT22;16578;53.266;7.920;2023-03-20T00:27:50;13.20;72.20
29663;DHT22;16578;53.266;7.920;2023-03-20T00:30:20;13.10;72.20
29663;DHT22;16578;53.266;7.920;2023-03-20T00:32:48;13.10;72.20
29663;DHT22;16578;53.266;7.920;2023-03-20T00:35:26;13.10;72.30
29663;DHT22;16578;53.266;7.920;2023-03-20T00:37:52;13.10;72.40
29663;DHT22;16578;53.266;7.920;2023-03-20T00:40:19;13.00;72.50
29663;DHT22;16578;53.266;7.920;2023-03-20T00:42:48;13.00;72.60
29663;DHT22;16578;53.266;7.920;2023-03-20T00:45:17;12.90;72.50
29663;DHT22;16578;53.266;7.920;2023-03-20T00:47:43;13.00;72.50
29663;DHT22;16578;53.266;7.920;2023-03-20T00:50:21;12.90;72.60
29663;DHT22;16578;53.266;7.920;2023-03-20T00:52:48;12.90;72.70
29663;DHT22;16578;53.266;7.920;2023-03-20T00:55:15;12.90;72.70
29663;DHT22;16578;53.266;7.920;2023-03-20T00:57:54;12.90;72.80
29663;DHT22;16578;53.266;7.920;2023-03-20T01:03:21;12.90;72.90
29663;DHT22;16578;53.266;7.920;2023-03-20T01:05:48;12.90;72.90
29663;DHT22;16578;53.266;7.920;2023-03-20T01:08:24;12.90;72.90
29663;DHT22;16578;53.266;7.920;2023-03-20T01:10:54;12.90;72.90
29663;DHT22;16578;53.266;7.920;2023-03-20T01:13:28;12.90;72.70
29663;DHT22;16578;53.266;7.920;2023-03-20T01:15:55;12.90;72.60
29663;DHT22;16578;53.266;7.920;2023-03-20T01:18:23;12.90;72.60
29663;DHT22;16578;53.266;7.920;2023-03-20T01:20:49;12.90;72.80
29663;DHT22;16578;53.266;7.920;2023-03-20T01:23:15;12.80;72.90
29663;DHT22;16578;53.266;7.920;2023-03-20T01:25:41;12.80;72.90
29663;DHT22;16578;53.266;7.920;2023-03-20T01:28:21;12.80;73.00
29663;DHT22;16578;53.266;7.920;2023-03-20T01:30:47;12.80;73.10
29663;DHT22;16578;53.266;7.920;2023-03-20T01:33:21;12.80;73.10
29663;DHT22;16578;53.266;7.920;2023-03-20T01:35:48;12.80;73.10
29663;DHT22;16578;53.266;7.920;2023-03-20T01:38:19;12.80;73.20
29663;DHT22;16578;53.266;7.920;2023-03-20T01:40:50;12.80;73.30
29663;DHT22;16578;53.266;7.920;2023-03-20T01:43:20;12.80;73.40
29663;DHT22;16578;53.266;7.920;2023-03-20T01:51:15;12.80;74.40
29663;DHT22;16578;53.266;7.920;2023-03-20T01:53:40;12.80;73.40
29663;DHT22;16578;53.266;7.920;2023-03-20T01:56:07;12.80;73.30
29663;DHT22;16578;53.266;7.920;2023-03-20T01:58:36;12.80;73.30
29663;DHT22;16578;53.266;7.920;2023-03-20T02:01:04;12.80;73.20
29663;DHT22;16578;53.266;7.920;2023-03-20T02:03:33;12.80;73.30
29663;DHT22;16578;53.266;7.920;2023-03-20T02:05:59;12.70;73.20
29663;DHT22;16578;53.266;7.920;2023-03-20T02:08:30;12.70;73.10
29663;DHT22;16578;53.266;7.920;2023-03-20T02:10:57;12.70;73.10
29663;DHT22;16578;53.266;7.920;2023-03-20T02:13:26;12.70;73.20
29663;DHT22;16578;53.266;7.920;2023-03-20T02:16:06;12.70;73.20
29663;DHT22;16578;53.266;7.920;2023-03-20T02:18:33;12.70;73.20
29663;DHT22;16578;53.266;7.920;2023-03-20T02:32:21;12.70;73.40
29663;DHT22;16578;53.266;7.920;2023-03-20T02:35:17;12.70;73.40
29663;DHT22;16578;53.266;7.920;2023-03-20T02:38:07;12.70;73.40
29663;DHT22;16578;53.266;7.920;2023-03-20T02:40:58;12.70;73.30
29663;DHT22;16578;53.266;7.920;2023-03-20T02:43:55;12.70;73.40
29663;DHT22;16578;53.266;7.920;2023-03-20T02:52:17;12.60;73.40
29663;DHT22;16578;53.266;7.920;2023-03-20T02:55:00;12.60;73.40
29663;DHT22;16578;53.266;7.920;2023-03-20T03:00:13;12.60;73.30
29663;DHT22;16578;53.266;7.920;2023-03-20T03:05:44;12.60;73.40
29663;DHT22;16578;53.266;7.920;2023-03-20T03:08:13;12.60;73.30
29663;DHT22;16578;53.266;7.920;2023-03-20T03:10:46;12.60;73.20
29663;DHT22;16578;53.266;7.920;2023-03-20T03:13:17;12.60;73.30
29663;DHT22;16578;53.266;7.920;2023-03-20T03:15:46;12.60;73.40
29663;DHT22;16578;53.266;7.920;2023-03-20T03:18:18;12.50;73.40
29663;DHT22;16578;53.266;7.920;2023-03-20T03:20:46;12.50;73.40
29663;DHT22;16578;53.266;7.920;2023-03-20T03:23:26;12.50;73.30
29663;DHT22;16578;53.266;7.920;2023-03-20T03:25:55;12.50;73.40
29663;DHT22;16578;53.266;7.920;2023-03-20T03:28:25;12.50;73.30
29663;DHT22;16578;53.266;7.920;2023-03-20T03:30:53;12.40;73.60
29663;DHT22;16578;53.266;7.920;2023-03-20T03:33:23;12.50;73.30
29663;DHT22;16578;53.266;7.920;2023-03-20T03:35:50;12.50;73.40
29663;DHT22;16578;53.266;7.920;2023-03-20T03:38:31;12.50;73.40
29663;DHT22;16578;53.266;7.920;2023-03-20T03:41:25;12.50;73.40
29663;DHT22;16578;53.266;7.920;2023-03-20T03:44:11;12.50;73.40
29663;DHT22;16578;53.266;7.920;2023-03-20T03:46:53;12.50;73.50
29663;DHT22;16578;53.266;7.920;2023-03-20T03:49:27;12.50;73.50
29663;DHT22;16578;53.266;7.920;2023-03-20T03:51:59;12.40;73.40
29663;DHT22;16578;53.266;7.920;2023-03-20T03:55:31;12.40;73.30
29663;DHT22;16578;53.266;7.920;2023-03-20T03:57:33;12.40;73.30
29663;DHT22;16578;53.266;7.920;2023-03-20T04:00:02;12.40;74.20
29663;DHT22;16578;53.266;7.920;2023-03-20T04:02:31;12.40;73.30
29663;DHT22;16578;53.266;7.920;2023-03-20T04:04:58;12.40;73.30
29663;DHT22;16578;53.266;7.920;2023-03-20T04:07:27;12.40;73.30
29663;DHT22;16578;53.266;7.920;2023-03-20T04:09:54;12.40;73.30
29663;DHT22;16578;53.266;7.920;2023-03-20T04:12:32;12.40;73.40
29663;DHT22;16578;53.266;7.920;2023-03-20T04:14:58;12.40;73.30
29663;DHT22;16578;53.266;7.920;2023-03-20T04:17:24;12.40;73.40
29663;DHT22;16578;53.266;7.920;2023-03-20T04:19:49;12.40;73.40
29663;DHT22;16578;53.266;7.920;2023-03-20T04:22:15;12.40;73.40
29663;DHT22;16578;53.266;7.920;2023-03-20T04:24:40;12.40;73.30
29663;DHT22;16578;53.266;7.920;2023-03-20T04:27:06;12.40;73.30
29663;DHT22;16578;53.266;7.920;2023-03-20T04:29:32;12.40;73.40
29663;DHT22;16578;53.266;7.920;2023-03-20T04:31:57;12.40;73.40
29663;DHT22;16578;53.266;7.920;2023-03-20T04:34:24;12.40;73.40
29663;DHT22;16578;53.266;7.920;2023-03-20T04:36:49;12.40;73.40
29663;DHT22;16578;53.266;7.920;2023-03-20T04:39:15;12.40;73.40
29663;DHT22;16578;53.266;7.920;2023-03-20T04:41:41;12.40;73.40
29663;DHT22;16578;53.266;7.920;2023-03-20T04:44:06;12.40;73.40
29663;DHT22;16578;53.266;7.920;2023-03-20T04:46:32;12.40;73.50
29663;DHT22;16578;53.266;7.920;2023-03-20T04:48:57;12.40;73.40
29663;DHT22;16578;53.266;7.920;2023-03-20T04:51:23;12.40;73.40
29663;DHT22;16578;53.266;7.920;2023-03-20T04:53:49;12.40;73.40
29663;DHT22;16578;53.266;7.920;2023-03-20T04:56:14;12.40;73.40
29663;DHT22;16578;53.266;7.920;2023-03-20T04:58:40;12.50;73.50
29663;DHT22;16578;53.266;7.920;2023-03-20T05:01:06;12.50;73.50
29663;DHT22;16578;53.266;7.920;2023-03-20T05:03:32;12.40;73.50
29663;DHT22;16578;53.266;7.920;2023-03-20T05:05:58;12.50;73.50
29663;DHT22;16578;53.266;7.920;2023-03-20T05:08:23;12.50;73.50
29663;DHT22;16578;53.266;7.920;2023-03-20T05:10:50;12.50;73.50
29663;DHT22;16578;53.266;7.920;2023-03-20T05:13:16;12.50;73.50
29663;DHT22;16578;53.266;7.920;2023-03-20T05:15:42;12.40;73.50
29663;DHT22;16578;53.266;7.920;2023-03-20T05:18:07;12.50;73.50
29663;DHT22;16578;53.266;7.920;2023-03-20T05:20:34;12.50;73.50
29663;DHT22;16578;53.266;7.920;2023-03-20T05:23:00;12.50;73.50
29663;DHT22;16578;53.266;7.920;2023-03-20T05:25:26;12.50;73.50
29663;DHT22;16578;53.266;7.920;2023-03-20T05:27:52;12.50;73.50
29663;DHT22;16578;53.266;7.920;2023-03-20T05:30:17;12.50;73.50
29663;DHT22;16578;53.266;7.920;2023-03-20T05:32:44;12.50;73.50
29663;DHT22;16578;53.266;7.920;2023-03-20T05:35:10;12.50;73.50
29663;DHT22;16578;53.266;7.920;2023-03-20T05:37:36;12.50;73.40
29663;DHT22;16578;53.266;7.920;2023-03-20T05:40:03;12.50;73.30
29663;DHT22;16578;53.266;7.920;2023-03-20T05:42:28;12.50;73.30
29663;DHT22;16578;53.266;7.920;2023-03-20T05:44:54;12.50;73.30
29663;DHT22;16578;53.266;7.920;2023-03-20T05:47:19;12.50;73.30
29663;DHT22;16578;53.266;7.920;2023-03-20T05:49:45;12.40;73.30
29663;DHT22;16578;53.266;7.920;2023-03-20T05:52:11;12.50;73.40
29663;DHT22;16578;53.266;7.920;2023-03-20T05:54:36;12.40;73.30
29663;DHT22;16578;53.266;7.920;2023-03-20T05:57:02;12.50;73.30
29663;DHT22;16578;53.266;7.920;2023-03-20T05:59:27;12.50;73.30
29663;DHT22;16578;53.266;7.920;2023-03-20T06:01:53;12.50;73.30
29663;DHT22;16578;53.266;7.920;2023-03-20T06:04:18;12.50;73.30
29663;DHT22;16578;53.266;7.920;2023-03-20T06:06:44;12.50;73.30
29663;DHT22;16578;53.266;7.920;2023-03-20T06:09:10;12.50;73.30
29663;DHT22;16578;53.266;7.920;2023-03-20T06:11:35;12.50;73.40
29663;DHT22;16578;53.266;7.920;2023-03-20T06:14:01;12.50;73.30
29663;DHT22;16578;53.266;7.920;2023-03-20T06:16:26;12.50;73.30
29663;DHT22;16578;53.266;7.920;2023-03-20T06:18:52;12.50;73.20
29663;DHT22;16578;53.266;7.920;2023-03-20T06:21:18;12.50;73.10
29663;DHT22;16578;53.266;7.920;2023-03-20T06:23:43;12.50;73.10
29663;DHT22;16578;53.266;7.920;2023-03-20T06:26:09;12.50;72.90
29663;DHT22;16578;53.266;7.920;2023-03-20T06:28:36;12.50;72.90
29663;DHT22;16578;53.266;7.920;2023-03-20T06:31:02;12.50;72.90
29663;DHT22;16578;53.266;7.920;2023-03-20T06:33:27;12.50;72.90
29663;DHT22;16578;53.266;7.920;2023-03-20T06:35:53;12.50;72.90
29663;DHT22;16578;53.266;7.920;2023-03-20T06:38:19;12.50;72.90
29663;DHT22;16578;53.266;7.920;2023-03-20T06:40:44;12.50;72.80
29663;DHT22;16578;53.266;7.920;2023-03-20T06:43:10;12.50;72.80
29663;DHT22;16578;53.266;7.920;2023-03-20T06:45:37;12.50;72.80
29663;DHT22;16578;53.266;7.920;2023-03-20T06:48:06;12.50;72.80
29663;DHT22;16578;53.266;7.920;2023-03-20T06:50:31;12.60;72.80
29663;DHT22;16578;53.266;7.920;2023-03-20T06:52:57;12.60;72.90
29663;DHT22;16578;53.266;7.920;2023-03-20T06:55:22;12.60;72.80
29663;DHT22;16578;53.266;7.920;2023-03-20T06:57:48;12.60;72.70
29663;DHT22;16578;53.266;7.920;2023-03-20T07:00:14;12.60;72.60
29663;DHT22;16578;53.266;7.920;2023-03-20T07:02:39;12.60;72.60
29663;DHT22;16578;53.266;7.920;2023-03-20T07:05:05;12.60;72.50
29663;DHT22;16578;53.266;7.920;2023-03-20T07:07:31;12.60;72.40
29663;DHT22;16578;53.266;7.920;2023-03-20T07:09:57;12.60;72.40
29663;DHT22;16578;53.266;7.920;2023-03-20T07:12:22;12.60;72.40
29663;DHT22;16578;53.266;7.920;2023-03-20T07:14:52;12.60;72.50
29663;DHT22;16578;53.266;7.920;2023-03-20T07:17:18;12.60;72.40
29663;DHT22;16578;53.266;7.920;2023-03-20T07:19:43;12.70;72.30
29663;DHT22;16578;53.266;7.920;2023-03-20T07:22:23;12.60;72.20
29663;DHT22;16578;53.266;7.920;2023-03-20T07:24:49;12.60;72.00
29663;DHT22;16578;53.266;7.920;2023-03-20T07:27:15;12.60;72.90
29663;DHT22;16578;53.266;7.920;2023-03-20T07:29:42;12.70;71.90
29663;DHT22;16578;53.266;7.920;2023-03-20T07:32:08;12.60;71.80
29663;DHT22;16578;53.266;7.920;2023-03-20T07:34:34;12.70;71.70
29663;DHT22;16578;53.266;7.920;2023-03-20T07:37:00;12.70;71.70
29663;DHT22;16578;53.266;7.920;2023-03-20T07:39:25;12.70;71.50
29663;DHT22;16578;53.266;7.920;2023-03-20T07:41:51;12.70;71.50
29663;DHT22;16578;53.266;7.920;2023-03-20T07:44:17;12.70;71.50
29663;DHT22;16578;53.266;7.920;2023-03-20T07:46:44;12.70;71.50
29663;DHT22;16578;53.266;7.920;2023-03-20T07:49:12;12.70;71.50
29663;DHT22;16578;53.266;7.920;2023-03-20T07:51:38;12.70;71.30
29663;DHT22;16578;53.266;7.920;2023-03-20T07:54:04;12.70;71.20
29663;DHT22;16578;53.266;7.920;2023-03-20T07:56:29;12.80;71.20
29663;DHT22;16578;53.266;7.920;2023-03-20T07:58:55;12.80;71.10
29663;DHT22;16578;53.266;7.920;2023-03-20T08:01:21;12.80;71.10
29663;DHT22;16578;53.266;7.920;2023-03-20T08:03:46;12.80;71.00
29663;DHT22;16578;53.266;7.920;2023-03-20T08:06:12;12.80;70.90
29663;DHT22;16578;53.266;7.920;2023-03-20T08:08:38;12.90;70.90
29663;DHT22;16578;53.266;7.920;2023-03-20T08:11:03;12.90;70.90
29663;DHT22;16578;53.266;7.920;2023-03-20T08:13:29;12.90;70.80
29663;DHT22;16578;53.266;7.920;2023-03-20T08:15:55;12.90;70.70
29663;DHT22;16578;53.266;7.920;2023-03-20T08:18:20;13.00;70.70
29663;DHT22;16578;53.266;7.920;2023-03-20T08:20:47;12.90;70.50
29663;DHT22;16578;53.266;7.920;2023-03-20T08:23:15;13.00;70.50
29663;DHT22;16578;53.266;7.920;2023-03-20T08:25:40;13.00;70.50
29663;DHT22;16578;53.266;7.920;2023-03-20T08:28:06;13.00;70.50
29663;DHT22;16578;53.266;7.920;2023-03-20T08:30:31;13.10;70.40
29663;DHT22;16578;53.266;7.920;2023-03-20T08:32:57;13.10;70.30
29663;DHT22;16578;53.266;7.920;2023-03-20T08:35:24;13.10;70.30
29663;DHT22;16578;53.266;7.920;2023-03-20T08:37:49;13.10;70.20
29663;DHT22;16578;53.266;7.920;2023-03-20T08:40:15;13.20;70.20
29663;DHT22;16578;53.266;7.920;2023-03-20T08:42:41;13.20;70.00
29663;DHT22;16578;53.266;7.920;2023-03-20T08:45:07;13.20;69.90
29663;DHT22;16578;53.266;7.920;2023-03-20T08:47:33;13.20;69.80
29663;DHT22;16578;53.266;7.920;2023-03-20T08:49:58;13.20;69.60
29663;DHT22;16578;53.266;7.920;2023-03-20T08:52:24;13.30;69.60
29663;DHT22;16578;53.266;7.920;2023-03-20T08:54:51;13.30;69.50
29663;DHT22;16578;53.266;7.920;2023-03-20T08:57:17;13.40;69.50
29663;DHT22;16578;53.266;7.920;2023-03-20T08:59:42;13.40;69.50
29663;DHT22;16578;53.266;7.920;2023-03-20T09:02:10;13.40;69.40
29663;DHT22;16578;53.266;7.920;2023-03-20T09:04:35;13.40;69.40
29663;DHT22;16578;53.266;7.920;2023-03-20T09:07:01;13.50;69.30
29663;DHT22;16578;53.266;7.920;2023-03-20T09:09:27;13.50;69.20
29663;DHT22;16578;53.266;7.920;2023-03-20T09:11:55;13.50;69.00
29663;DHT22;16578;53.266;7.920;2023-03-20T09:14:21;13.60;68.90
29663;DHT22;16578;53.266;7.920;2023-03-20T09:16:47;13.60;68.90
29663;DHT22;16578;53.266;7.920;2023-03-20T09:19:13;13.60;68.70
29663;DHT22;16578;53.266;7.920;2023-03-20T09:21:38;13.60;68.50
29663;DHT22;16578;53.266;7.920;2023-03-20T09:24:04;13.70;68.40
29663;DHT22;16578;53.266;7.920;2023-03-20T09:26:30;13.70;68.40
29663;DHT22;16578;53.266;7.920;2023-03-20T09:28:56;13.70;68.30
29663;DHT22;16578;53.266;7.920;2023-03-20T09:31:21;13.80;68.20
29663;DHT22;16578;53.266;7.920;2023-03-20T09:33:47;13.80;68.20
29663;DHT22;16578;53.266;7.920;2023-03-20T09:36:13;13.80;68.10
29663;DHT22;16578;53.266;7.920;2023-03-20T09:38:40;13.90;67.90
29663;DHT22;16578;53.266;7.920;2023-03-20T09:41:16;13.90;67.70
29663;DHT22;16578;53.266;7.920;2023-03-20T09:47:08;14.00;67.90
29663;DHT22;16578;53.266;7.920;2023-03-20T09:49:38;14.10;67.60
29663;DHT22;16578;53.266;7.920;2023-03-20T09:52:19;14.10;68.00
29663;DHT22;16578;53.266;7.920;2023-03-20T09:54:49;14.20;67.20
29663;DHT22;16578;53.266;7.920;2023-03-20T09:57:26;14.30;67.30
29663;DHT22;16578;53.266;7.920;2023-03-20T10:00:00;14.30;67.20
29663;DHT22;16578;53.266;7.920;2023-03-20T10:02:42;14.30;67.10
29663;DHT22;16578;53.266;7.920;2023-03-20T10:05:42;14.40;66.80
29663;DHT22;16578;53.266;7.920;2023-03-20T10:08:13;14.40;66.40
29663;DHT22;16578;53.266;7.920;2023-03-20T10:11:03;14.50;66.70
29663;DHT22;16578;53.266;7.920;2023-03-20T10:18:34;14.60;65.60
29663;DHT22;16578;53.266;7.920;2023-03-20T10:21:05;14.60;65.80
29663;DHT22;16578;53.266;7.920;2023-03-20T10:23:55;14.60;66.00
29663;DHT22;16578;53.266;7.920;2023-03-20T10:26:26;14.60;65.90
29663;DHT22;16578;53.266;7.920;2023-03-20T10:29:28;14.70;66.20
29663;DHT22;16578;53.266;7.920;2023-03-20T10:32:23;14.80;65.60
29663;DHT22;16578;53.266;7.920;2023-03-20T10:40:40;15.00;65.10
29663;DHT22;16578;53.266;7.920;2023-03-20T10:43:16;15.10;65.30
29663;DHT22;16578;53.266;7.920;2023-03-20T10:45:49;15.20;64.70
29663;DHT22;16578;53.266;7.920;2023-03-20T10:48:24;15.20;64.70
29663;DHT22;16578;53.266;7.920;2023-03-20T10:50:57;15.30;64.40
29663;DHT22;16578;53.266;7.920;2023-03-20T10:55:59;15.40;63.90
29663;DHT22;16578;53.266;7.920;2023-03-20T10:58:29;15.50;63.80
29663;DHT22;16578;53.266;7.920;2023-03-20T11:00:56;15.60;63.70
29663;DHT22;16578;53.266;7.920;2023-03-20T11:03:27;15.60;63.50
29663;DHT22;16578;53.266;7.920;2023-03-20T11:08:39;15.70;63.30
29663;DHT22;16578;53.266;7.920;2023-03-20T11:11:06;15.80;63.40
29663;DHT22;16578;53.266;7.920;2023-03-20T11:13:38;15.80;63.50
29663;DHT22;16578;53.266;7.920;2023-03-20T11:18:36;16.00;62.50
29663;DHT22;16578;53.266;7.920;2023-03-20T11:21:02;16.00;62.40
29663;DHT22;16578;53.266;7.920;2023-03-20T11:23:32;16.00;62.10
29663;DHT22;16578;53.266;7.920;2023-03-20T11:26:00;16.10;62.60
29663;DHT22;16578;53.266;7.920;2023-03-20T11:30:59;16.10;61.60
29663;DHT22;16578;53.266;7.920;2023-03-20T11:33:28;16.10;61.60
29663;DHT22;16578;53.266;7.920;2023-03-20T11:35:55;16.10;61.30
29663;DHT22;16578;53.266;7.920;2023-03-20T11:38:22;16.10;61.30
29663;DHT22;16578;53.266;7.920;2023-03-20T11:40:50;16.10;61.10
29663;DHT22;16578;53.266;7.920;2023-03-20T11:43:21;16.10;60.90
29663;DHT22;16578;53.266;7.920;2023-03-20T11:45:55;16.10;60.90
29663;DHT22;16578;53.266;7.920;2023-03-20T11:48:39;16.10;60.60
29663;DHT22;16578;53.266;7.920;2023-03-20T11:51:07;16.10;60.30
29663;DHT22;16578;53.266;7.920;2023-03-20T11:56:20;16.10;59.90
29663;DHT22;16578;53.266;7.920;2023-03-20T12:01:42;16.00;59.70
29663;DHT22;16578;53.266;7.920;2023-03-20T12:04:32;15.90;60.00
29663;DHT22;16578;53.266;7.920;2023-03-20T12:07:18;15.90;59.60
29663;DHT22;16578;53.266;7.920;2023-03-20T12:09:52;15.90;59.70
29663;DHT22;16578;53.266;7.920;2023-03-20T12:12:41;15.80;60.00
29663;DHT22;16578;53.266;7.920;2023-03-20T12:17:52;15.70;60.40
29663;DHT22;16578;53.266;7.920;2023-03-20T12:23:55;15.80;60.00
29663;DHT22;16578;53.266;7.920;2023-03-20T12:25:54;15.70;59.90
29663;DHT22;16578;53.266;7.920;2023-03-20T12:33:43;15.70;59.80
29663;DHT22;16578;53.266;7.920;2023-03-20T12:36:17;15.60;59.70
29663;DHT22;16578;53.266;7.920;2023-03-20T12:38:45;15.60;59.50
29663;DHT22;16578;53.266;7.920;2023-03-20T12:43:54;15.50;59.60
29663;DHT22;16578;53.266;7.920;2023-03-20T12:46:43;15.50;59.60
29663;DHT22;16578;53.266;7.920;2023-03-20T12:49:32;15.40;59.90
29663;DHT22;16578;53.266;7.920;2023-03-20T12:55:14;15.40;60.00
29663;DHT22;16578;53.266;7.920;2023-03-20T13:12:00;15.20;60.40
29663;DHT22;16578;53.266;7.920;2023-03-20T13:14:58;15.20;60.40
29663;DHT22;16578;53.266;7.920;2023-03-20T13:17:46;15.20;60.50
29663;DHT22;16578;53.266;7.920;2023-03-20T13:20:15;15.20;60.50
29663;DHT22;16578;53.266;7.920;2023-03-20T13:30:53;15.00;61.10
29663;DHT22;16578;53.266;7.920;2023-03-20T13:33:45;14.90;61.60
29663;DHT22;16578;53.266;7.920;2023-03-20T13:39:18;14.90;62.40
29663;DHT22;16578;53.266;7.920;2023-03-20T13:41:45;14.80;62.80
29663;DHT22;16578;53.266;7.920;2023-03-20T13:44:13;14.70;63.00
29663;DHT22;16578;53.266;7.920;2023-03-20T13:47:00;14.70;63.30
29663;DHT22;16578;53.266;7.920;2023-03-20T13:52:06;14.50;64.10
29663;DHT22;16578;53.266;7.920;2023-03-20T14:03:08;14.40;65.30
29663;DHT22;16578;53.266;7.920;2023-03-20T14:05:41;14.40;65.80
29663;DHT22;16578;53.266;7.920;2023-03-20T14:11:06;14.40;65.70
29663;DHT22;16578;53.266;7.920;2023-03-20T14:13:36;14.40;65.70
29663;DHT22;16578;53.266;7.920;2023-03-20T14:16:06;14.50;65.70
29663;DHT22;16578;53.266;7.920;2023-03-20T14:18:32;14.50;65.90
29663;DHT22;16578;53.266;7.920;2023-03-20T14:21:08;14.50;65.90
29663;DHT22;16578;53.266;7.920;2023-03-20T14:23:38;14.50;66.00
29663;DHT22;16578;53.266;7.920;2023-03-20T14:26:21;14.50;66.10
29663;DHT22;16578;53.266;7.920;2023-03-20T14:31:37;14.50;66.30
29663;DHT22;16578;53.266;7.920;2023-03-20T14:34:16;14.40;66.10
29663;DHT22;16578;53.266;7.920;2023-03-20T14:47:25;14.50;66.30
29663;DHT22;16578;53.266;7.920;2023-03-20T14:50:11;14.50;66.30
29663;DHT22;16578;53.266;7.920;2023-03-20T14:52:59;14.50;66.30
29663;DHT22;16578;53.266;7.920;2023-03-20T14:57:52;14.60;66.40
29663;DHT22;16578;53.266;7.920;2023-03-20T15:03:04;14.60;66.00
29663;DHT22;16578;53.266;7.920;2023-03-20T15:05:33;14.60;65.80
29663;DHT22;16578;53.266;7.920;2023-03-20T15:08:09;14.60;65.70
29663;DHT22;16578;53.266;7.920;2023-03-20T15:10:43;14.60;65.70
29663;DHT22;16578;53.266;7.920;2023-03-20T15:13:10;14.60;65.70
29663;DHT22;16578;53.266;7.920;2023-03-20T15:15:38;14.50;65.80
29663;DHT22;16578;53.266;7.920;2023-03-20T15:18:10;14.40;65.80
29663;DHT22;16578;53.266;7.920;2023-03-20T15:20:36;14.40;65.90
29663;DHT22;16578;53.266;7.920;2023-03-20T15:23:02;14.40;66.10
29663;DHT22;16578;53.266;7.920;2023-03-20T15:25:37;14.40;66.30
29663;DHT22;16578;53.266;7.920;2023-03-20T15:28:07;14.40;66.50
29663;DHT22;16578;53.266;7.920;2023-03-20T15:30:36;14.40;66.50
29663;DHT22;16578;53.266;7.920;2023-03-20T15:33:02;14.40;66.30
29663;DHT22;16578;53.266;7.920;2023-03-20T15:35:28;14.40;66.20
29663;DHT22;16578;53.266;7.920;2023-03-20T15:37:56;14.30;66.30
29663;DHT22;16578;53.266;7.920;2023-03-20T15:42:56;14.30;66.30
29663;DHT22;16578;53.266;7.920;2023-03-20T15:45:33;14.30;66.40
29663;DHT22;16578;53.266;7.920;2023-03-20T15:48:20;14.20;66.40
29663;DHT22;16578;53.266;7.920;2023-03-20T15:50:58;14.20;66.40
29663;DHT22;16578;53.266;7.920;2023-03-20T15:53:33;14.20;66.60
29663;DHT22;16578;53.266;7.920;2023-03-20T15:56:06;14.20;66.60
29663;DHT22;16578;53.266;7.920;2023-03-20T15:58:33;14.10;66.50
29663;DHT22;16578;53.266;7.920;2023-03-20T16:01:00;14.10;66.50
29663;DHT22;16578;53.266;7.920;2023-03-20T16:03:27;14.10;66.60
29663;DHT22;16578;53.266;7.920;2023-03-20T16:05:53;14.00;66.60
29663;DHT22;16578;53.266;7.920;2023-03-20T16:08:31;14.00;66.60
29663;DHT22;16578;53.266;7.920;2023-03-20T16:11:00;14.00;66.90
29663;DHT22;16578;53.266;7.920;2023-03-20T16:13:30;13.90;66.90
29663;DHT22;16578;53.266;7.920;2023-03-20T16:15:57;13.90;67.20
29663;DHT22;16578;53.266;7.920;2023-03-20T16:18:23;13.90;67.40
29663;DHT22;16578;53.266;7.920;2023-03-20T16:20:55;13.80;67.70
29663;DHT22;16578;53.266;7.920;2023-03-20T16:23:33;13.80;67.90
29663;DHT22;16578;53.266;7.920;2023-03-20T16:26:02;13.80;68.20
29663;DHT22;16578;53.266;7.920;2023-03-20T16:28:28;13.70;68.10
29663;DHT22;16578;53.266;7.920;2023-03-20T16:31:16;13.70;68.40
29663;DHT22;16578;53.266;7.920;2023-03-20T16:33:44;13.60;69.00
29663;DHT22;16578;53.266;7.920;2023-03-20T16:36:18;13.60;68.90
29663;DHT22;16578;53.266;7.920;2023-03-20T16:41:42;13.60;69.60
29663;DHT22;16578;53.266;7.920;2023-03-20T16:44:17;13.50;70.20
29663;DHT22;16578;53.266;7.920;2023-03-20T16:46:59;13.50;69.70
29663;DHT22;16578;53.266;7.920;2023-03-20T16:51:58;13.40;69.80
29663;DHT22;16578;53.266;7.920;2023-03-20T16:54:27;13.40;70.00
29663;DHT22;16578;53.266;7.920;2023-03-20T16:56:54;13.40;70.10
29663;DHT22;16578;53.266;7.920;2023-03-20T16:59:20;13.40;70.10
29663;DHT22;16578;53.266;7.920;2023-03-20T17:01:47;13.30;70.20
29663;DHT22;16578;53.266;7.920;2023-03-20T17:04:28;13.30;70.40
29663;DHT22;16578;53.266;7.920;2023-03-20T17:07:13;13.30;70.60
29663;DHT22;16578;53.266;7.920;2023-03-20T17:12:40;13.20;70.80
29663;DHT22;16578;53.266;7.920;2023-03-20T17:15:07;13.20;70.80
29663;DHT22;16578;53.266;7.920;2023-03-20T17:17:32;13.20;70.90
29663;DHT22;16578;53.266;7.920;2023-03-20T17:19:58;13.10;70.90
29663;DHT22;16578;53.266;7.920;2023-03-20T17:22:26;13.10;71.10
29663;DHT22;16578;53.266;7.920;2023-03-20T17:24:54;13.10;71.30
29663;DHT22;16578;53.266;7.920;2023-03-20T17:27:20;13.00;71.30
29663;DHT22;16578;53.266;7.920;2023-03-20T17:29:47;13.00;71.30
29663;DHT22;16578;53.266;7.920;2023-03-20T17:32:20;13.00;71.40
29663;DHT22;16578;53.266;7.920;2023-03-20T17:34:48;13.00;71.60
29663;DHT22;16578;53.266;7.920;2023-03-20T17:37:19;12.90;71.60
29663;DHT22;16578;53.266;7.920;2023-03-20T17:39:46;12.90;71.90
29663;DHT22;16578;53.266;7.920;2023-03-20T17:42:21;12.90;71.90
29663;DHT22;16578;53.266;7.920;2023-03-20T17:44:49;12.90;72.10
29663;DHT22;16578;53.266;7.920;2023-03-20T17:47:19;12.80;72.00
29663;DHT22;16578;53.266;7.920;2023-03-20T17:49:45;12.80;72.00
29663;DHT22;16578;53.266;7.920;2023-03-20T17:52:13;12.80;72.20
29663;DHT22;16578;53.266;7.920;2023-03-20T17:54:41;12.80;72.30
29663;DHT22;16578;53.266;7.920;2023-03-20T17:57:20;12.80;72.40
29663;DHT22;16578;53.266;7.920;2023-03-20T17:59:47;12.80;72.60
29663;DHT22;16578;53.266;7.920;2023-03-20T18:02:15;12.70;72.50
29663;DHT22;16578;53.266;7.920;2023-03-20T18:04:40;12.70;72.50
29663;DHT22;16578;53.266;7.920;2023-03-20T18:07:08;12.70;72.60
29663;DHT22;16578;53.266;7.920;2023-03-20T18:09:33;12.70;72.80
29663;DHT22;16578;53.266;7.920;2023-03-20T18:11:59;12.70;72.90
29663;DHT22;16578;53.266;7.920;2023-03-20T18:14:24;12.70;72.90